Terminal Aerodrome Forecast
Issued by NWS

Home | Current Version | Previous Version | Graphics & Text | Print | Product List | Glossary On
Versions: 1 2 3 4 5 6 7 8 9 10 11 12 13 14 15 16 17 18 19 20 21 22 23 24 25 26
000
FTUS43 KBIS 221100
TAFMOT
TAF
KMOT 221134Z 2212/2312 35007KT 3SM -SHRA BR OVC004
     FM221600 36010KT P6SM OVC015
     FM221900 04011KT P6SM BKN040=

USA.gov is the U.S. government's official web portal to all federal, state and local government web resources and services.